createdAt,value
2022-09-24T00:00:20.319Z,2.30
2022-09-24T00:03:25.568Z,2.73
2022-09-24T00:06:29.101Z,2.50
2022-09-24T00:09:31.293Z,6.30
2022-09-24T00:12:33.611Z,5.30
2022-09-24T00:15:39.886Z,3.30
2022-09-24T00:18:42.973Z,8.50
2022-09-24T00:21:45.425Z,3.13
2022-09-24T00:25:05.937Z,2.90
2022-09-24T00:28:08.375Z,3.57
2022-09-24T00:31:10.300Z,3.50
2022-09-24T00:34:12.307Z,4.00
2022-09-24T00:37:14.171Z,8.30
2022-09-24T00:40:16.413Z,2.30
2022-09-24T00:43:29.416Z,3.43
2022-09-24T00:46:43.317Z,3.93
2022-09-24T00:49:48.627Z,4.53
2022-09-24T00:52:55.355Z,3.70
2022-09-24T00:55:57.272Z,2.30
2022-09-24T00:59:02.680Z,5.17
2022-09-24T01:02:05.068Z,2.97
2022-09-24T01:05:07.542Z,5.33
2022-09-24T01:08:17.608Z,3.30
2022-09-24T01:11:22.526Z,3.67
2022-09-24T01:14:36.941Z,4.50
2022-09-24T01:17:54.337Z,3.57
2022-09-24T01:21:05.069Z,3.03
2022-09-24T01:24:26.361Z,3.50
2022-09-24T01:28:07.247Z,3.03
2022-09-24T01:31:18.679Z,2.50
2022-09-24T01:34:23.689Z,3.70
2022-09-24T01:37:26.843Z,2.83
2022-09-24T01:40:30.515Z,5.47
2022-09-24T01:43:33.669Z,2.60
2022-09-24T01:46:39.022Z,2.70
2022-09-24T01:49:41.137Z,2.17
2022-09-24T01:53:25.445Z,2.50
2022-09-24T01:56:32.893Z,2.30
2022-09-24T02:00:10.902Z,5.80
2022-09-24T02:03:17.635Z,3.30
2022-09-24T02:06:32.121Z,3.10
2022-09-24T02:09:36.900Z,2.53
2022-09-24T02:12:42.644Z,2.63
2022-09-24T02:15:47.494Z,5.77
2022-09-24T02:18:52.806Z,2.83
2022-09-24T02:21:55.530Z,3.00
2022-09-24T02:24:59.768Z,2.37
2022-09-24T02:28:03.466Z,3.47
2022-09-24T02:31:19.251Z,3.23
2022-09-24T02:34:27.730Z,2.77
2022-09-24T02:37:34.040Z,4.10
2022-09-24T02:40:36.032Z,3.13
2022-09-24T02:43:38.015Z,5.20
2022-09-24T02:46:42.000Z,3.60
2022-09-24T02:49:45.056Z,3.10
2022-09-24T02:52:46.915Z,2.40
2022-09-24T02:55:49.245Z,3.13
2022-09-24T02:58:51.179Z,2.30
2022-09-24T03:01:53.465Z,3.50
2022-09-24T03:04:55.925Z,2.97
2022-09-24T03:07:59.155Z,4.83
2022-09-24T03:11:01.124Z,5.57
2022-09-24T03:14:03.168Z,4.23
2022-09-24T03:17:05.100Z,3.63
2022-09-24T03:20:07.882Z,3.20
2022-09-24T03:23:09.896Z,2.23
2022-09-24T03:26:11.974Z,3.13
2022-09-24T03:29:14.019Z,3.83
2022-09-24T03:32:15.934Z,8.93
2022-09-24T03:35:18.155Z,3.83
2022-09-24T03:38:20.508Z,3.33
2022-09-24T03:41:24.334Z,2.07
2022-09-24T03:44:27.499Z,3.10
2022-09-24T03:47:29.669Z,2.97
2022-09-24T03:50:31.903Z,4.23
2022-09-24T03:53:34.364Z,3.13
2022-09-24T03:56:36.311Z,2.90
2022-09-24T03:59:38.247Z,4.60
2022-09-24T04:02:40.897Z,5.27
2022-09-24T04:05:42.860Z,3.67
2022-09-24T04:08:44.728Z,6.47
2022-09-24T04:11:46.620Z,3.03
2022-09-24T04:14:48.449Z,2.83
2022-09-24T04:17:55.648Z,6.30
2022-09-24T04:21:01.027Z,3.77
2022-09-24T04:24:03.413Z,3.30
2022-09-24T04:27:05.269Z,3.17
2022-09-24T04:30:08.300Z,4.17
2022-09-24T04:33:10.205Z,4.57
2022-09-24T04:36:12.829Z,2.97
2022-09-24T04:39:15.844Z,2.67
2022-09-24T04:42:18.818Z,3.07
2022-09-24T04:45:21.327Z,3.27
2022-09-24T04:48:24.719Z,6.17
2022-09-24T04:51:26.640Z,2.67
2022-09-24T04:54:30.134Z,2.77
2022-09-24T04:57:36.408Z,4.83
2022-09-24T05:00:39.019Z,5.10
2022-09-24T05:03:41.566Z,2.93
2022-09-24T05:06:43.557Z,3.43
2022-09-24T05:09:45.404Z,3.90
2022-09-24T05:12:47.353Z,4.83
2022-09-24T05:15:49.306Z,4.47
2022-09-24T05:18:51.285Z,2.43
2022-09-24T05:21:53.173Z,5.17
2022-09-24T05:24:55.422Z,3.20
2022-09-24T05:27:57.328Z,4.80
2022-09-24T05:31:00.267Z,3.47
2022-09-24T05:34:03.935Z,2.93
2022-09-24T05:37:05.938Z,3.97
2022-09-24T05:40:26.447Z,3.83
2022-09-24T05:43:29.679Z,6.13
2022-09-24T05:46:33.337Z,2.90
2022-09-24T05:49:35.616Z,4.67
2022-09-24T05:52:38.349Z,2.93
2022-09-24T05:55:40.390Z,2.40
2022-09-24T05:58:42.304Z,11.63
2022-09-24T06:01:45.496Z,3.83
2022-09-24T06:04:47.625Z,6.07
2022-09-24T06:07:49.583Z,4.27
2022-09-24T06:10:51.479Z,2.50
2022-09-24T06:13:53.788Z,2.97
2022-09-24T06:16:57.174Z,3.73
2022-09-24T06:19:59.088Z,5.90
2022-09-24T06:23:01.123Z,2.77
2022-09-24T06:26:04.055Z,4.03
2022-09-24T06:29:06.192Z,4.27
2022-09-24T06:32:08.424Z,7.60
2022-09-24T06:35:10.339Z,3.17
2022-09-24T06:38:17.379Z,4.27
2022-09-24T06:41:19.353Z,2.67
2022-09-24T06:44:21.260Z,2.77
2022-09-24T06:47:24.408Z,3.93
2022-09-24T06:50:28.539Z,3.90
2022-09-24T06:53:30.685Z,2.60
2022-09-24T06:56:32.680Z,2.57
2022-09-24T06:59:35.088Z,1.93
2022-09-24T07:02:37.183Z,3.33
2022-09-24T07:05:43.434Z,2.70
2022-09-24T07:08:51.169Z,2.20
2022-09-24T07:11:53.689Z,4.87
2022-09-24T07:14:56.508Z,4.40
2022-09-24T07:17:59.012Z,1.87
2022-09-24T07:21:00.978Z,3.03
2022-09-24T07:24:03.195Z,3.27
2022-09-24T07:27:06.168Z,2.90
2022-09-24T07:30:09.293Z,3.37
2022-09-24T07:33:11.205Z,3.23
2022-09-24T07:36:13.084Z,2.53
2022-09-24T07:39:15.615Z,3.40
2022-09-24T07:42:18.323Z,2.33
2022-09-24T07:45:20.330Z,3.20
2022-09-24T07:48:22.497Z,1.80
2022-09-24T07:51:28.759Z,6.57
2022-09-24T07:57:57.994Z,5.60
2022-09-24T08:01:01.885Z,3.60
2022-09-24T08:04:05.121Z,2.37
2022-09-24T08:07:07.298Z,2.10
2022-09-24T08:10:10.366Z,4.23
2022-09-24T08:13:12.825Z,3.40
2022-09-24T08:16:16.807Z,4.93
2022-09-24T08:19:18.765Z,1.87
2022-09-24T08:22:20.827Z,3.40
2022-09-24T08:25:23.099Z,2.40
2022-09-24T08:28:25.203Z,7.00
2022-09-24T08:31:27.885Z,3.47
2022-09-24T08:34:30.759Z,2.00
2022-09-24T08:37:33.030Z,3.83
2022-09-24T08:40:46.854Z,2.40
2022-09-24T08:44:14.715Z,2.40
2022-09-24T08:47:38.863Z,2.93
2022-09-24T08:50:47.039Z,2.67
2022-09-24T08:53:58.183Z,4.50
2022-09-24T08:57:01.234Z,3.93
2022-09-24T09:00:04.918Z,2.87
2022-09-24T09:03:23.903Z,4.93
2022-09-24T09:06:31.879Z,2.40
2022-09-24T09:09:57.359Z,2.20
2022-09-24T09:13:12.268Z,3.30
2022-09-24T09:16:40.580Z,3.53
2022-09-24T09:19:43.369Z,2.33
2022-09-24T09:22:49.341Z,2.90
2022-09-24T09:25:59.683Z,3.30
2022-09-24T09:29:02.015Z,1.90
2022-09-24T09:32:23.431Z,2.20
2022-09-24T09:35:39.669Z,4.43
2022-09-24T09:38:44.618Z,2.40
2022-09-24T09:42:09.555Z,2.70
2022-09-24T09:45:55.729Z,2.70
2022-09-24T09:49:02.014Z,2.08
2022-09-24T09:52:11.271Z,2.25
2022-09-24T09:55:25.048Z,2.38
2022-09-24T09:58:28.531Z,2.60
2022-09-24T10:01:33.811Z,3.28
2022-09-24T10:04:35.799Z,3.05
2022-09-24T10:07:45.254Z,6.25
2022-09-24T10:11:03.204Z,2.90
2022-09-24T10:14:06.680Z,3.22
2022-09-24T10:17:14.505Z,4.00
2022-09-24T10:20:19.942Z,2.35
2022-09-24T10:23:25.996Z,5.88
2022-09-24T10:26:44.030Z,1.75
2022-09-24T10:30:06.099Z,1.95
2022-09-24T10:33:09.014Z,1.95
2022-09-24T10:36:39.843Z,1.73
2022-09-24T10:39:41.874Z,2.25
2022-09-24T10:42:43.813Z,1.52
2022-09-24T10:46:01.577Z,2.22
2022-09-24T10:49:32.241Z,4.18
2022-09-24T10:52:52.480Z,2.15
2022-09-24T10:55:57.579Z,2.42
2022-09-24T10:59:28.004Z,3.15
2022-09-24T11:03:00.977Z,4.70
2022-09-24T11:06:10.850Z,2.17
2022-09-24T11:09:28.674Z,3.88
2022-09-24T11:12:33.740Z,1.75
2022-09-24T11:15:59.699Z,2.30
2022-09-24T11:19:08.830Z,3.05
2022-09-24T11:22:35.922Z,2.35
2022-09-24T11:25:55.956Z,4.35
2022-09-24T11:29:17.134Z,2.35
2022-09-24T11:32:29.116Z,2.70
2022-09-24T11:35:53.329Z,3.55
2022-09-24T11:39:30.589Z,2.10
2022-09-24T11:43:13.182Z,1.90
2022-09-24T11:46:23.695Z,2.30
2022-09-24T11:49:38.198Z,1.58
2022-09-24T11:52:54.114Z,3.38
2022-09-24T11:56:00.106Z,4.03
2022-09-24T11:59:23.249Z,7.65
2022-09-24T12:02:43.853Z,6.70
2022-09-24T12:05:56.395Z,3.35
2022-09-24T12:09:15.158Z,5.03
2022-09-24T12:12:21.881Z,4.88
2022-09-24T12:15:26.386Z,2.30
2022-09-24T12:18:55.593Z,3.22
2022-09-24T12:21:58.579Z,5.55
2022-09-24T12:25:02.308Z,2.40
2022-09-24T12:28:04.359Z,8.53
2022-09-24T12:31:46.414Z,4.10
2022-09-24T12:35:19.616Z,5.97
2022-09-24T12:38:41.044Z,5.17
2022-09-24T12:41:46.105Z,4.87
2022-09-24T12:44:54.701Z,7.23
2022-09-24T12:48:01.485Z,5.93
2022-09-24T12:51:06.140Z,5.27
2022-09-24T12:54:30.940Z,4.77
2022-09-24T12:57:41.677Z,6.03
2022-09-24T13:00:47.268Z,6.30
2022-09-24T13:04:03.011Z,6.97
2022-09-24T13:07:32.854Z,4.47
2022-09-24T13:10:36.799Z,4.17
2022-09-24T13:13:43.700Z,5.10
2022-09-24T13:16:51.165Z,5.03
2022-09-24T13:20:01.842Z,4.40
2022-09-24T13:23:19.926Z,6.03
2022-09-24T13:26:24.978Z,6.93
2022-09-24T13:29:27.424Z,6.53
2022-09-24T13:32:34.626Z,4.63
2022-09-24T13:35:47.573Z,9.57
2022-09-24T13:39:32.304Z,9.67
2022-09-24T13:42:38.199Z,6.83
2022-09-24T13:45:43.020Z,5.10
2022-09-24T13:48:54.924Z,4.50
2022-09-24T13:52:08.833Z,9.03
2022-09-24T13:55:39.807Z,6.37
2022-09-24T13:58:43.204Z,3.80
2022-09-24T14:01:47.409Z,4.63
2022-09-24T14:04:58.416Z,4.40
2022-09-24T14:08:15.486Z,6.63
2022-09-24T14:11:26.690Z,5.47
2022-09-24T14:14:31.376Z,8.63
2022-09-24T14:17:33.294Z,5.30
2022-09-24T14:20:36.383Z,6.83
2022-09-24T14:23:49.505Z,7.33
2022-09-24T14:27:08.093Z,6.97
2022-09-24T14:30:19.796Z,8.90
2022-09-24T14:33:26.204Z,8.50
2022-09-24T14:36:29.441Z,6.10
2022-09-24T14:39:31.835Z,6.03
2022-09-24T14:42:44.257Z,6.87
2022-09-24T14:45:47.515Z,9.00
2022-09-24T14:48:49.500Z,7.40
2022-09-24T14:51:55.441Z,9.03
2022-09-24T14:55:09.414Z,7.03
2022-09-24T14:58:25.504Z,7.50
2022-09-24T15:01:32.555Z,6.70
2022-09-24T15:04:35.469Z,8.10
2022-09-24T15:07:37.344Z,6.37
2022-09-24T15:10:40.409Z,9.50
2022-09-24T15:13:49.101Z,11.13
2022-09-24T15:16:52.429Z,8.13
2022-09-24T15:19:56.583Z,7.47
2022-09-24T15:22:58.538Z,6.50
2022-09-24T15:26:00.515Z,5.93
2022-09-24T15:29:03.095Z,7.33
2022-09-24T15:32:15.036Z,5.97
2022-09-24T15:35:17.514Z,5.40
2022-09-24T15:38:20.092Z,8.77
2022-09-24T15:41:22.059Z,6.40
2022-09-24T15:44:31.259Z,6.77
2022-09-24T15:47:35.753Z,8.70
2022-09-24T15:50:39.803Z,6.20
2022-09-24T15:53:41.909Z,8.10
2022-09-24T15:56:44.392Z,6.83
2022-09-24T15:59:46.353Z,6.80
2022-09-24T16:02:51.738Z,11.63
2022-09-24T16:05:54.447Z,5.73
2022-09-24T16:08:56.394Z,8.57
2022-09-24T16:11:58.499Z,7.23
2022-09-24T16:15:01.211Z,7.57
2022-09-24T16:18:03.361Z,5.60
2022-09-24T16:21:07.221Z,6.77
2022-09-24T16:24:09.196Z,6.33
2022-09-24T16:27:11.374Z,7.23
2022-09-24T16:30:13.499Z,6.87
2022-09-24T16:33:15.385Z,6.40
2022-09-24T16:36:17.474Z,5.63
2022-09-24T16:39:19.705Z,8.60
2022-09-24T16:42:22.230Z,11.07
2022-09-24T16:45:24.242Z,6.73
2022-09-24T16:48:26.283Z,7.83
2022-09-24T16:51:28.339Z,6.80
2022-09-24T16:54:31.420Z,9.53
2022-09-24T16:57:37.048Z,5.93
2022-09-24T17:00:42.743Z,8.97
2022-09-24T17:03:47.291Z,5.97
2022-09-24T17:06:49.195Z,5.07
2022-09-24T17:10:09.899Z,9.40
2022-09-24T17:13:11.733Z,8.07
2022-09-24T17:16:16.558Z,6.70
2022-09-24T17:19:18.588Z,7.83
2022-09-24T17:22:20.531Z,9.37
2022-09-24T17:25:22.516Z,11.07
2022-09-24T17:28:25.024Z,8.77
2022-09-24T17:31:28.127Z,5.90
2022-09-24T17:34:30.204Z,5.50
2022-09-24T17:37:32.847Z,5.43
2022-09-24T17:40:35.320Z,8.30
2022-09-24T17:43:38.337Z,5.87
2022-09-24T17:46:40.924Z,4.33
2022-09-24T17:49:43.131Z,7.00
2022-09-24T17:52:45.629Z,6.07
2022-09-24T17:55:51.664Z,5.60
2022-09-24T17:58:56.368Z,7.97
2022-09-24T18:01:58.411Z,5.83
2022-09-24T18:05:00.941Z,8.13
2022-09-24T18:08:02.809Z,5.23
2022-09-24T18:11:07.200Z,5.50
2022-09-24T18:14:14.792Z,8.23
2022-09-24T18:17:16.914Z,6.90
2022-09-24T18:20:20.044Z,6.87
2022-09-24T18:23:22.019Z,8.87
2022-09-24T18:26:29.875Z,5.20
2022-09-24T18:29:31.799Z,9.77
2022-09-24T18:32:35.051Z,8.37
2022-09-24T18:35:36.929Z,7.90
2022-09-24T18:38:38.868Z,5.43
2022-09-24T18:41:42.030Z,5.53
2022-09-24T18:44:47.387Z,5.23
2022-09-24T18:47:49.240Z,9.67
2022-09-24T18:50:51.297Z,6.00
2022-09-24T18:53:58.640Z,6.10
2022-09-24T18:57:00.624Z,9.13
2022-09-24T19:00:03.070Z,9.30
2022-09-24T19:03:04.991Z,6.27
2022-09-24T19:06:08.420Z,9.53
2022-09-24T19:09:12.015Z,9.40
2022-09-24T19:12:13.984Z,8.43
2022-09-24T19:15:16.440Z,8.47
2022-09-24T19:18:18.928Z,7.80
2022-09-24T19:21:22.861Z,6.97
2022-09-24T19:24:25.199Z,9.97
2022-09-24T19:27:27.564Z,8.90
2022-09-24T19:30:30.083Z,9.03
2022-09-24T19:33:32.029Z,10.80
2022-09-24T19:36:44.220Z,8.77
2022-09-24T19:39:46.976Z,11.33
2022-09-24T19:42:49.088Z,11.07
2022-09-24T19:45:58.526Z,7.90
2022-09-24T19:49:02.346Z,8.40
2022-09-24T19:52:05.041Z,8.37
2022-09-24T19:55:07.356Z,10.40
2022-09-24T19:58:09.719Z,10.37
2022-09-24T20:01:16.832Z,13.23
2022-09-24T20:04:20.694Z,11.47
2022-09-24T20:07:22.682Z,8.57
2022-09-24T20:10:24.545Z,13.83
2022-09-24T20:13:26.484Z,10.43
2022-09-24T20:16:31.114Z,13.87
2022-09-24T20:19:33.114Z,10.03
2022-09-24T20:22:35.039Z,14.90
2022-09-24T20:25:55.756Z,10.07
2022-09-24T20:28:58.418Z,10.30
2022-09-24T20:32:00.597Z,11.03
2022-09-24T20:35:03.756Z,9.53
2022-09-24T20:38:07.360Z,8.80
2022-09-24T20:41:10.274Z,8.20
2022-09-24T20:44:12.378Z,10.23
2022-09-24T20:47:14.404Z,10.10
2022-09-24T20:50:20.661Z,10.97
2022-09-24T20:53:22.469Z,8.40
2022-09-24T20:56:25.408Z,8.03
2022-09-24T20:59:27.490Z,8.77
2022-09-24T21:02:29.412Z,8.57
2022-09-24T21:05:32.188Z,9.40
2022-09-24T21:08:40.319Z,12.63
2022-09-24T21:11:42.302Z,8.67
2022-09-24T21:14:44.209Z,8.80
2022-09-24T21:17:59.613Z,9.83
2022-09-24T21:21:14.674Z,11.00
2022-09-24T21:24:16.701Z,10.63
2022-09-24T21:27:19.751Z,9.73
2022-09-24T21:30:22.176Z,10.57
2022-09-24T21:33:24.105Z,9.73
2022-09-24T21:36:29.489Z,10.90
2022-09-24T21:39:31.534Z,11.60
2022-09-24T21:42:34.519Z,9.83
2022-09-24T21:45:40.895Z,7.80
2022-09-24T21:48:43.074Z,8.27
2022-09-24T21:51:45.575Z,7.80
2022-09-24T21:54:47.437Z,6.63
2022-09-24T21:57:49.344Z,7.23
2022-09-24T22:00:51.321Z,7.20
2022-09-24T22:04:08.873Z,9.47
2022-09-24T22:07:11.157Z,7.00
2022-09-24T22:10:14.392Z,8.77
2022-09-24T22:13:17.251Z,10.37
2022-09-24T22:16:19.934Z,6.63
2022-09-24T22:19:22.290Z,7.93
2022-09-24T22:22:24.563Z,9.80
2022-09-24T22:25:27.467Z,7.17
2022-09-24T22:28:29.455Z,6.10
2022-09-24T22:31:32.572Z,8.63
2022-09-24T22:34:53.474Z,8.77
2022-09-24T22:37:56.504Z,8.77
2022-09-24T22:41:03.301Z,9.93
2022-09-24T22:44:05.511Z,11.17
2022-09-24T22:47:07.454Z,7.17
2022-09-24T22:50:09.949Z,7.37
2022-09-24T22:53:12.047Z,9.07
2022-09-24T22:56:19.768Z,8.80
2022-09-24T22:59:21.792Z,9.70
2022-09-24T23:02:23.759Z,8.03
2022-09-24T23:05:26.258Z,10.20
2022-09-24T23:08:33.325Z,10.63
2022-09-24T23:11:36.158Z,15.73
2022-09-24T23:14:38.415Z,11.83
2022-09-24T23:17:41.179Z,11.67
2022-09-24T23:20:44.019Z,9.73
2022-09-24T23:23:46.699Z,9.23
2022-09-24T23:26:48.624Z,17.90
2022-09-24T23:29:50.501Z,11.03
2022-09-24T23:32:52.314Z,11.93
2022-09-24T23:35:55.690Z,8.83
2022-09-24T23:38:58.728Z,10.00
2022-09-24T23:42:00.879Z,8.70
2022-09-24T23:45:02.764Z,10.20
2022-09-24T23:48:04.836Z,14.70
2022-09-24T23:51:07.289Z,11.43
2022-09-24T23:54:09.472Z,10.10
2022-09-24T23:57:11.568Z,9.27
